Time;durP1;ratioP1;P1;durP2;ratioP2;P2;SDS_P1;SDS_P2;PMS_P1;PMS_P2;Temp;Humidity;BMP_temperature;BMP_pressure;BME280_temperature;BME280_humidity;BME280_pressure;Samples;Min_cycle;Max_cycle;Signal;HPM_P1;HPM_P2
2021/03/26 00:02:02;;;;;;;9.40;4.90;;;;;;;;;;5044524;28;20178;-67
2021/03/26 00:04:27;;;;;;;10.17;5.37;;;;;;;;;;5044702;28;21882;-67
2021/03/26 00:06:53;;;;;;;13.87;6.93;;;;;;;;;;5040099;28;20605;-67
2021/03/26 00:09:20;;;;;;;11.37;6.00;;;;;;;;;;5036381;28;20211;-67
2021/03/26 00:11:46;;;;;;;9.57;5.37;;;;;;;;;;5037994;28;20192;-66
2021/03/26 00:14:11;;;;;;;9.37;5.43;;;;;;;;;;5037551;28;20205;-67
2021/03/26 00:16:37;;;;;;;10.70;6.10;;;;;;;;;;5037280;28;20174;-67
2021/03/26 00:19:02;;;;;;;12.27;5.93;;;;;;;;;;5037162;28;20192;-67
2021/03/26 00:21:27;;;;;;;13.03;6.37;;;;;;;;;;5042438;28;20209;-67
2021/03/26 00:23:52;;;;;;;9.73;5.93;;;;;;;;;;5043554;28;20186;-67
2021/03/26 00:26:18;;;;;;;11.00;6.63;;;;;;;;;;5045170;28;20185;-67
2021/03/26 00:28:43;;;;;;;14.40;6.00;;;;;;;;;;5049814;28;20554;-67
2021/03/26 00:31:08;;;;;;;11.53;5.30;;;;;;;;;;5046739;28;21983;-67
2021/03/26 00:33:34;;;;;;;10.97;6.47;;;;;;;;;;5046360;28;20229;-67
2021/03/26 00:35:59;;;;;;;11.63;7.07;;;;;;;;;;5047908;28;20235;-67
2021/03/26 00:38:25;;;;;;;12.10;7.23;;;;;;;;;;5045183;28;20205;-67
2021/03/26 00:40:51;;;;;;;13.67;6.80;;;;;;;;;;5047025;28;20194;-67
2021/03/26 00:43:16;;;;;;;8.60;6.47;;;;;;;;;;5050215;28;20555;-67
2021/03/26 00:45:41;;;;;;;11.37;6.33;;;;;;;;;;5049780;28;20200;-66
2021/03/26 00:48:07;;;;;;;13.70;7.43;;;;;;;;;;5048060;28;20192;-66
2021/03/26 00:50:32;;;;;;;13.73;6.87;;;;;;;;;;5044537;28;20271;-66
2021/03/26 00:52:58;;;;;;;12.80;7.10;;;;;;;;;;5040640;28;20214;-67
2021/03/26 00:55:24;;;;;;;14.73;7.83;;;;;;;;;;5044562;28;20182;-68
2021/03/26 00:57:49;;;;;;;9.93;7.43;;;;;;;;;;5045237;28;20240;-67
2021/03/26 01:00:17;;;;;;;13.83;8.10;;;;;;;;;;5043639;28;20257;-67
2021/03/26 01:02:42;;;;;;;12.80;7.70;;;;;;;;;;5035788;28;20284;-67
2021/03/26 01:05:08;;;;;;;13.13;8.43;;;;;;;;;;5045110;28;20260;-68
2021/03/26 01:07:33;;;;;;;10.53;7.60;;;;;;;;;;5040888;28;20648;-66
2021/03/26 01:09:58;;;;;;;13.17;8.33;;;;;;;;;;5047392;28;20205;-69
2021/03/26 01:12:23;;;;;;;24.70;9.73;;;;;;;;;;5045023;28;20557;-69
2021/03/26 01:14:49;;;;;;;15.53;9.10;;;;;;;;;;5047228;28;20224;-69
2021/03/26 01:17:14;;;;;;;13.23;8.30;;;;;;;;;;5044731;28;20265;-69
2021/03/26 01:19:42;;;;;;;16.20;9.00;;;;;;;;;;5039007;28;20202;-65
2021/03/26 01:22:07;;;;;;;18.20;9.57;;;;;;;;;;5043957;28;20261;-67
2021/03/26 01:24:32;;;;;;;15.73;9.10;;;;;;;;;;5045343;28;20277;-65
2021/03/26 01:26:58;;;;;;;15.23;9.00;;;;;;;;;;5045879;28;20181;-69
2021/03/26 01:29:23;;;;;;;16.10;9.23;;;;;;;;;;5047530;28;20189;-69
2021/03/26 01:31:48;;;;;;;17.93;9.97;;;;;;;;;;5047837;28;20228;-69
2021/03/26 01:34:13;;;;;;;14.43;10.07;;;;;;;;;;5046066;28;20313;-68
2021/03/26 01:36:39;;;;;;;18.73;9.27;;;;;;;;;;5046226;28;20174;-67
2021/03/26 01:39:05;;;;;;;14.80;10.07;;;;;;;;;;5042993;28;20563;-66
2021/03/26 01:41:33;;;;;;;15.70;8.63;;;;;;;;;;5046150;28;20201;-68
2021/03/26 01:43:58;;;;;;;20.90;10.53;;;;;;;;;;5046178;28;20231;-68
2021/03/26 01:46:24;;;;;;;16.97;10.07;;;;;;;;;;5046265;28;20232;-68
2021/03/26 01:48:51;;;;;;;14.13;10.27;;;;;;;;;;5046364;28;20190;-69
2021/03/26 01:51:18;;;;;;;13.43;9.80;;;;;;;;;;5041487;28;20197;-69
2021/03/26 01:53:44;;;;;;;18.63;10.40;;;;;;;;;;5048071;28;20235;-67
2021/03/26 01:56:10;;;;;;;17.53;10.73;;;;;;;;;;5032946;28;20268;-68
2021/03/26 01:58:36;;;;;;;18.70;10.77;;;;;;;;;;5042677;28;20197;-69
2021/03/26 02:01:04;;;;;;;15.80;10.17;;;;;;;;;;5042535;28;20194;-69
2021/03/26 02:03:29;;;;;;;15.23;10.77;;;;;;;;;;5050429;28;20268;-67
2021/03/26 02:05:56;;;;;;;17.30;9.83;;;;;;;;;;5049317;28;20273;-68
2021/03/26 02:08:24;;;;;;;17.37;10.43;;;;;;;;;;5047735;28;20193;-69
2021/03/26 02:10:49;;;;;;;14.90;10.00;;;;;;;;;;5049898;28;20213;-68
2021/03/26 02:13:23;;;;;;;14.67;10.40;;;;;;;;;;5052130;28;20205;-68
2021/03/26 02:15:49;;;;;;;16.80;10.63;;;;;;;;;;5049832;28;20559;-68
2021/03/26 02:18:16;;;;;;;17.07;11.57;;;;;;;;;;5050793;28;20166;-68
2021/03/26 02:20:43;;;;;;;18.80;10.13;;;;;;;;;;5048802;28;20690;-67
2021/03/26 02:23:10;;;;;;;15.97;11.30;;;;;;;;;;5054005;28;20193;-69
2021/03/26 02:25:36;;;;;;;16.63;11.63;;;;;;;;;;5052226;28;20173;-69
2021/03/26 02:28:01;;;;;;;20.23;11.30;;;;;;;;;;5052899;28;20650;-68
2021/03/26 02:30:29;;;;;;;12.63;9.70;;;;;;;;;;5047896;28;20461;-69
2021/03/26 02:32:55;;;;;;;16.43;11.20;;;;;;;;;;5051249;28;20206;-68
2021/03/26 02:35:32;;;;;;;18.07;11.70;;;;;;;;;;5048141;28;20193;-69
2021/03/26 02:37:57;;;;;;;14.30;10.10;;;;;;;;;;5049909;28;20173;-68
2021/03/26 02:40:25;;;;;;;18.30;11.37;;;;;;;;;;5046976;28;20199;-68
2021/03/26 02:43:05;;;;;;;18.23;12.70;;;;;;;;;;5052233;28;20193;-68
2021/03/26 02:45:34;;;;;;;18.00;11.77;;;;;;;;;;5049759;28;20266;-67
2021/03/26 02:48:01;;;;;;;16.40;12.23;;;;;;;;;;5053032;28;20639;-67
2021/03/26 02:50:27;;;;;;;18.90;13.50;;;;;;;;;;5044830;28;20218;-67
2021/03/26 02:52:52;;;;;;;20.57;13.67;;;;;;;;;;5051768;28;20205;-67
2021/03/26 02:55:24;;;;;;;21.15;14.68;;;;;;;;;;5051929;28;20188;-66
2021/03/26 02:57:56;;;;;;;23.07;14.63;;;;;;;;;;5042722;28;20249;-67
2021/03/26 03:00:38;;;;;;;21.33;14.73;;;;;;;;;;5048831;28;20194;-67
2021/03/26 03:03:05;;;;;;;24.13;15.30;;;;;;;;;;5045325;28;20662;-67
2021/03/26 03:05:40;;;;;;;22.27;14.63;;;;;;;;;;5049059;28;20307;-67
2021/03/26 03:08:14;;;;;;;21.07;14.77;;;;;;;;;;5052606;28;20177;-67
2021/03/26 03:10:51;;;;;;;25.00;15.93;;;;;;;;;;5045569;28;20280;-67
2021/03/26 03:13:16;;;;;;;24.70;17.47;;;;;;;;;;5050655;28;20193;-67
2021/03/26 03:15:45;;;;;;;23.63;16.27;;;;;;;;;;5050434;28;20181;-66
2021/03/26 03:18:17;;;;;;;23.00;16.63;;;;;;;;;;5050036;28;20192;-65
2021/03/26 03:20:45;;;;;;;26.27;17.90;;;;;;;;;;5046713;28;20377;-67
2021/03/26 03:23:14;;;;;;;25.27;17.40;;;;;;;;;;5049740;28;20713;-67
2021/03/26 03:25:39;;;;;;;27.97;18.00;;;;;;;;;;5045686;28;20734;-67
2021/03/26 03:28:23;;;;;;;29.50;17.20;;;;;;;;;;5053152;28;20262;-68
2021/03/26 03:30:51;;;;;;;28.30;18.73;;;;;;;;;;5047169;28;20258;-67
2021/03/26 03:33:22;;;;;;;24.10;17.90;;;;;;;;;;5040515;28;20202;-67
2021/03/26 03:35:53;;;;;;;27.40;20.90;;;;;;;;;;5050597;28;20231;-67
2021/03/26 03:38:37;;;;;;;29.13;19.83;;;;;;;;;;5052079;28;20528;-67
2021/03/26 03:41:02;;;;;;;29.20;20.80;;;;;;;;;;5049819;28;20243;-67
2021/03/26 03:43:46;;;;;;;30.95;21.83;;;;;;;;;;5051376;28;20260;-67
2021/03/26 03:46:24;;;;;;;36.47;21.77;;;;;;;;;;5049560;28;20178;-67
2021/03/26 03:49:00;;;;;;;30.67;20.43;;;;;;;;;;5064254;28;20208;-67
2021/03/26 03:51:45;;;;;;;30.07;19.93;;;;;;;;;;5042345;28;20227;-67
2021/03/26 03:54:10;;;;;;;31.47;20.03;;;;;;;;;;5048846;28;20205;-67
2021/03/26 03:56:43;;;;;;;29.53;21.03;;;;;;;;;;5037391;28;20536;-66
2021/03/26 03:59:19;;;;;;;31.60;21.83;;;;;;;;;;5045296;28;20187;-67
2021/03/26 04:01:56;;;;;;;35.13;22.17;;;;;;;;;;5041744;28;20178;-65
2021/03/26 04:04:23;;;;;;;31.23;20.20;;;;;;;;;;5047693;28;20213;-67
2021/03/26 04:07:00;;;;;;;33.33;20.80;;;;;;;;;;5050086;28;20189;-67
2021/03/26 04:09:29;;;;;;;30.00;20.73;;;;;;;;;;5044534;28;20181;-69
2021/03/26 04:12:03;;;;;;;31.90;21.83;;;;;;;;;;5048993;28;20253;-68
2021/03/26 04:14:35;;;;;;;31.47;21.53;;;;;;;;;;5048130;28;20758;-67
2021/03/26 04:17:03;;;;;;;30.57;21.13;;;;;;;;;;5047585;28;20595;-67
2021/03/26 04:19:38;;;;;;;31.67;22.47;;;;;;;;;;5050114;28;20553;-68
2021/03/26 04:22:07;;;;;;;34.17;21.30;;;;;;;;;;5039647;28;20175;-69
2021/03/26 04:24:35;;;;;;;29.10;21.20;;;;;;;;;;5047269;28;20653;-66
2021/03/26 04:27:05;;;;;;;30.90;21.27;;;;;;;;;;5049659;28;20174;-67
2021/03/26 04:29:46;;;;;;;33.77;22.10;;;;;;;;;;5051059;28;20257;-69
2021/03/26 04:32:12;;;;;;;33.63;21.50;;;;;;;;;;5043370;28;20225;-66
2021/03/26 04:34:39;;;;;;;31.90;22.93;;;;;;;;;;5045991;28;20588;-67
2021/03/26 04:37:06;;;;;;;29.17;20.70;;;;;;;;;;5044992;28;20178;-67
2021/03/26 04:39:37;;;;;;;28.13;21.03;;;;;;;;;;5051574;28;20192;-67
2021/03/26 04:42:05;;;;;;;31.83;21.50;;;;;;;;;;5037136;28;20198;-67
2021/03/26 04:44:36;;;;;;;28.07;20.33;;;;;;;;;;5047782;28;20899;-66
2021/03/26 04:47:04;;;;;;;33.37;20.87;;;;;;;;;;5034918;28;20197;-65
2021/03/26 04:49:38;;;;;;;29.97;21.40;;;;;;;;;;5044062;28;20572;-67
2021/03/26 04:52:06;;;;;;;31.90;21.00;;;;;;;;;;5040756;28;20181;-66
2021/03/26 04:54:33;;;;;;;34.80;21.40;;;;;;;;;;5046566;28;20209;-66
2021/03/26 04:57:06;;;;;;;29.50;20.03;;;;;;;;;;5033500;28;21006;-66
2021/03/26 04:59:50;;;;;;;32.17;20.63;;;;;;;;;;5048021;28;20185;-65
2021/03/26 05:02:17;;;;;;;30.37;21.30;;;;;;;;;;5048429;28;20631;-67
2021/03/26 05:04:43;;;;;;;29.17;20.80;;;;;;;;;;5049272;28;20731;-65
2021/03/26 05:07:17;;;;;;;29.40;20.63;;;;;;;;;;5044104;28;20178;-66
2021/03/26 05:09:44;;;;;;;36.93;20.50;;;;;;;;;;5047167;28;20240;-66
2021/03/26 05:12:12;;;;;;;29.83;20.27;;;;;;;;;;5043871;28;20239;-66
2021/03/26 05:14:40;;;;;;;29.83;19.63;;;;;;;;;;5044428;28;20619;-66
2021/03/26 05:17:09;;;;;;;29.53;19.53;;;;;;;;;;5046461;28;20666;-66
2021/03/26 05:19:41;;;;;;;33.17;20.20;;;;;;;;;;5046757;28;20205;-66
2021/03/26 05:22:18;;;;;;;30.83;20.23;;;;;;;;;;5050087;28;20643;-66
2021/03/26 05:24:47;;;;;;;31.77;19.40;;;;;;;;;;5049018;28;20181;-66
2021/03/26 05:27:12;;;;;;;33.90;20.40;;;;;;;;;;5048220;28;20189;-66
2021/03/26 05:29:38;;;;;;;29.00;19.33;;;;;;;;;;5044086;28;20209;-67
2021/03/26 05:32:13;;;;;;;33.67;19.43;;;;;;;;;;5050109;28;20631;-67
2021/03/26 05:34:50;;;;;;;31.33;19.80;;;;;;;;;;5046045;28;20208;-67
2021/03/26 05:37:34;;;;;;;31.77;19.33;;;;;;;;;;5051299;28;20165;-66
2021/03/26 05:40:02;;;;;;;28.20;17.83;;;;;;;;;;5047216;28;20219;-67
2021/03/26 05:42:40;;;;;;;32.40;19.30;;;;;;;;;;5050419;28;20184;-67
2021/03/26 05:45:24;;;;;;;31.83;18.70;;;;;;;;;;5052836;28;20181;-66
2021/03/26 05:47:58;;;;;;;36.97;19.77;;;;;;;;;;5048114;28;20272;-66
2021/03/26 05:50:42;;;;;;;31.77;19.30;;;;;;;;;;5042996;28;20745;-66
2021/03/26 05:53:13;;;;;;;30.30;19.33;;;;;;;;;;5047412;28;20204;-66
2021/03/26 05:55:44;;;;;;;30.00;19.87;;;;;;;;;;5054341;28;20247;-67
2021/03/26 05:58:23;;;;;;;29.63;19.93;;;;;;;;;;5042651;28;20201;-67
2021/03/26 06:01:11;;;;;;;31.10;20.27;;;;;;;;;;5045964;28;20236;-68
2021/03/26 06:03:55;;;;;;;31.80;18.47;;;;;;;;;;5045798;28;20202;-67
2021/03/26 06:06:41;;;;;;;24.77;17.80;;;;;;;;;;5047516;28;20186;-67
2021/03/26 06:09:25;;;;;;;26.87;18.10;;;;;;;;;;5046812;28;20200;-67
2021/03/26 06:11:50;;;;;;;25.00;17.97;;;;;;;;;;5050495;28;20276;-68
2021/03/26 06:14:34;;;;;;;26.08;18.88;;;;;;;;;;5052147;28;20288;-67
2021/03/26 06:16:59;;;;;;;30.73;18.73;;;;;;;;;;5052895;28;20267;-67
2021/03/26 06:19:46;;;;;;;23.90;17.30;;;;;;;;;;5052992;28;20674;-67
2021/03/26 06:22:22;;;;;;;27.87;16.53;;;;;;;;;;5051750;28;20183;-67
2021/03/26 06:25:08;;;;;;;32.17;18.43;;;;;;;;;;5050817;28;20191;-67
2021/03/26 06:27:41;;;;;;;28.57;18.17;;;;;;;;;;5047365;28;20666;-67
2021/03/26 06:30:18;;;;;;;28.37;18.07;;;;;;;;;;5051682;28;21432;-67
2021/03/26 06:33:03;;;;;;;27.07;17.00;;;;;;;;;;5052068;28;20197;-67
2021/03/26 06:35:31;;;;;;;27.30;16.70;;;;;;;;;;5043159;28;20254;-68
2021/03/26 06:38:15;;;;;;;26.53;17.17;;;;;;;;;;5054235;28;20211;-68
2021/03/26 06:40:53;;;;;;;27.47;16.97;;;;;;;;;;5049695;28;20279;-68
2021/03/26 06:43:28;;;;;;;26.27;17.37;;;;;;;;;;5051087;28;20178;-67
2021/03/26 06:46:07;;;;;;;25.47;16.20;;;;;;;;;;5052728;28;20651;-68
2021/03/26 06:48:38;;;;;;;25.80;16.80;;;;;;;;;;5054099;28;20181;-67
2021/03/26 06:51:12;;;;;;;24.10;17.90;;;;;;;;;;5041039;28;20198;-68
2021/03/26 06:53:44;;;;;;;23.80;17.63;;;;;;;;;;5041622;28;20300;-68
2021/03/26 06:56:15;;;;;;;23.00;16.13;;;;;;;;;;5046796;28;20315;-67
2021/03/26 06:58:53;;;;;;;24.53;16.20;;;;;;;;;;5046299;28;20182;-67
2021/03/26 07:01:30;;;;;;;29.70;17.13;;;;;;;;;;5033734;28;20205;-67
2021/03/26 07:04:15;;;;;;;25.17;17.67;;;;;;;;;;5045246;28;20254;-66
2021/03/26 07:06:46;;;;;;;23.57;16.40;;;;;;;;;;5048895;28;20666;-67
2021/03/26 07:09:36;;;;;;;27.57;17.27;;;;;;;;;;5037250;28;20612;-66
2021/03/26 07:12:06;;;;;;;26.60;16.63;;;;;;;;;;5040749;28;20286;-67
2021/03/26 07:14:49;;;;;;;24.93;17.13;;;;;;;;;;5040200;28;20259;-67
2021/03/26 07:17:49;;;;;;;22.50;16.40;;;;;;;;;;5052199;28;20208;-67
2021/03/26 07:20:17;;;;;;;24.20;15.67;;;;;;;;;;5039933;28;20931;-67
2021/03/26 07:23:00;;;;;;;22.57;15.87;;;;;;;;;;5037373;28;20188;-66
2021/03/26 07:25:31;;;;;;;25.70;16.37;;;;;;;;;;5038827;28;20189;-67
2021/03/26 07:27:56;;;;;;;25.13;17.07;;;;;;;;;;5041364;28;20654;-67
2021/03/26 07:30:27;;;;;;;26.23;16.43;;;;;;;;;;5048097;28;20675;-67
2021/03/26 07:32:52;;;;;;;23.50;15.83;;;;;;;;;;5053837;28;21061;-67
2021/03/26 07:35:37;;;;;;;22.17;15.90;;;;;;;;;;5044964;28;20272;-67
2021/03/26 07:38:17;;;;;;;20.83;14.77;;;;;;;;;;5041029;28;20174;-66
2021/03/26 07:40:48;;;;;;;27.17;17.07;;;;;;;;;;5041037;28;20317;-66
2021/03/26 07:43:19;;;;;;;22.87;16.43;;;;;;;;;;5040849;28;20682;-66
2021/03/26 07:45:45;;;;;;;23.90;16.07;;;;;;;;;;5039883;28;20180;-67
2021/03/26 07:48:31;;;;;;;22.97;15.97;;;;;;;;;;5042355;28;20169;-67
2021/03/26 07:51:00;;;;;;;25.27;16.70;;;;;;;;;;5044312;28;20764;-67
2021/03/26 07:53:43;;;;;;;24.70;15.10;;;;;;;;;;5038448;28;20213;-67
2021/03/26 07:56:28;;;;;;;21.93;15.63;;;;;;;;;;5038360;28;20181;-68
2021/03/26 07:59:12;;;;;;;24.77;15.63;;;;;;;;;;5038954;28;20264;-67
2021/03/26 08:01:45;;;;;;;21.20;14.13;;;;;;;;;;5034201;28;20202;-67
2021/03/26 08:04:25;;;;;;;19.83;13.83;;;;;;;;;;5037349;28;20584;-67
2021/03/26 08:07:09;;;;;;;22.63;16.13;;;;;;;;;;5039766;28;20185;-67
2021/03/26 08:09:34;;;;;;;23.83;15.20;;;;;;;;;;5036214;28;20642;-67
2021/03/26 08:12:10;;;;;;;25.80;16.70;;;;;;;;;;5031846;28;20228;-67
2021/03/26 08:14:55;;;;;;;21.43;14.37;;;;;;;;;;5024993;28;20208;-67
2021/03/26 08:17:26;;;;;;;23.43;15.43;;;;;;;;;;5022702;28;20684;-66
2021/03/26 08:19:58;;;;;;;26.90;15.20;;;;;;;;;;5021866;28;20206;-67
2021/03/26 08:22:33;;;;;;;22.53;14.67;;;;;;;;;;5023418;28;20182;-66
2021/03/26 08:25:05;;;;;;;23.13;15.13;;;;;;;;;;5023054;28;20185;-66
2021/03/26 08:27:33;;;;;;;19.20;14.30;;;;;;;;;;5019157;28;22209;-67
2021/03/26 08:30:10;;;;;;;19.30;15.27;;;;;;;;;;5022520;28;20232;-67
2021/03/26 08:32:41;;;;;;;23.03;14.53;;;;;;;;;;5022340;28;20209;-67
2021/03/26 08:35:12;;;;;;;21.10;14.40;;;;;;;;;;5022609;28;20189;-65
2021/03/26 08:37:55;;;;;;;20.87;14.27;;;;;;;;;;5019372;28;20212;-67
2021/03/26 08:40:22;;;;;;;19.53;13.73;;;;;;;;;;5024455;28;20292;-67
2021/03/26 08:42:50;;;;;;;21.23;15.40;;;;;;;;;;5020291;28;20236;-65
2021/03/26 08:45:21;;;;;;;19.33;13.70;;;;;;;;;;5020118;28;20197;-67
2021/03/26 08:47:49;;;;;;;21.33;13.60;;;;;;;;;;5031592;28;20651;-65
2021/03/26 08:50:33;;;;;;;20.52;12.90;;;;;;;;;;5034548;28;21864;-68
2021/03/26 08:53:13;;;;;;;18.95;12.70;;;;;;;;;;5027188;28;20682;-67
2021/03/26 08:55:57;;;;;;;17.15;11.68;;;;;;;;;;5027655;28;20185;-68
2021/03/26 08:58:41;;;;;;;18.77;13.20;;;;;;;;;;5022086;28;20209;-67
2021/03/26 09:01:24;;;;;;;17.42;12.63;;;;;;;;;;5024243;28;20202;-67
2021/03/26 09:04:08;;;;;;;16.85;12.82;;;;;;;;;;5031380;28;20190;-66
2021/03/26 09:06:53;;;;;;;17.20;11.75;;;;;;;;;;5026917;28;20663;-67
2021/03/26 09:09:25;;;;;;;17.75;12.07;;;;;;;;;;5025071;28;20643;-67
2021/03/26 09:12:09;;;;;;;16.20;11.85;;;;;;;;;;5025423;28;22140;-67
2021/03/26 09:14:45;;;;;;;15.10;10.65;;;;;;;;;;5039031;28;20284;-68
2021/03/26 09:17:18;;;;;;;13.95;10.57;;;;;;;;;;5039011;28;20572;-66
2021/03/26 09:19:48;;;;;;;16.63;10.70;;;;;;;;;;5044378;28;20201;-68
2021/03/26 09:22:25;;;;;;;18.85;11.32;;;;;;;;;;5035725;28;20565;-67
2021/03/26 09:25:15;;;;;;;14.95;10.35;;;;;;;;;;5023438;28;20179;-67
2021/03/26 09:27:43;;;;;;;14.98;10.10;;;;;;;;;;5021467;28;20185;-68
2021/03/26 09:30:17;;;;;;;16.00;9.95;;;;;;;;;;5026131;28;20201;-69
2021/03/26 09:32:47;;;;;;;16.75;9.88;;;;;;;;;;5025204;28;20197;-67
2021/03/26 09:35:16;;;;;;;12.45;8.82;;;;;;;;;;5023772;28;20251;-67
2021/03/26 09:37:44;;;;;;;11.88;8.68;;;;;;;;;;5022613;28;20177;-67
2021/03/26 09:40:19;;;;;;;11.60;9.07;;;;;;;;;;5029034;28;20683;-67
2021/03/26 09:42:49;;;;;;;11.00;7.43;;;;;;;;;;5023708;28;20223;-68
2021/03/26 09:45:20;;;;;;;13.32;8.75;;;;;;;;;;5020896;28;20629;-66
2021/03/26 09:48:08;;;;;;;13.30;7.50;;;;;;;;;;5023651;28;20705;-68
2021/03/26 09:50:37;;;;;;;11.10;7.03;;;;;;;;;;5023769;28;20189;-67
2021/03/26 09:53:08;;;;;;;12.30;7.95;;;;;;;;;;5029645;28;20696;-66
2021/03/26 09:55:35;;;;;;;11.40;7.32;;;;;;;;;;5022896;28;20189;-67
2021/03/26 09:58:03;;;;;;;13.88;7.82;;;;;;;;;;5025142;28;20256;-67
2021/03/26 10:00:28;;;;;;;13.13;7.93;;;;;;;;;;5024432;28;20238;-68
2021/03/26 10:03:20;;;;;;;12.38;8.10;;;;;;;;;;5023310;28;20316;-67
2021/03/26 10:06:15;;;;;;;11.95;7.53;;;;;;;;;;5026642;28;20771;-68
2021/03/26 10:11:16;;;;;;;11.82;7.78;;;;;;;;;;5024838;28;20217;-67
2021/03/26 10:13:44;;;;;;;10.55;6.97;;;;;;;;;;5026393;28;20568;-68
2021/03/26 10:16:11;;;;;;;11.43;6.72;;;;;;;;;;5024415;28;21003;-67
2021/03/26 10:18:39;;;;;;;10.73;6.47;;;;;;;;;;5024812;28;20679;-67
2021/03/26 10:21:04;;;;;;;8.45;5.57;;;;;;;;;;5026183;28;20201;-67
2021/03/26 10:23:29;;;;;;;8.70;4.97;;;;;;;;;;5027148;28;20601;-67
2021/03/26 10:26:00;;;;;;;8.63;6.32;;;;;;;;;;5024379;28;20196;-67
2021/03/26 10:28:26;;;;;;;9.55;6.13;;;;;;;;;;5023809;28;20238;-68
2021/03/26 10:31:02;;;;;;;10.02;6.82;;;;;;;;;;5025582;28;20201;-67
2021/03/26 10:33:28;;;;;;;9.40;6.10;;;;;;;;;;5032946;28;20201;-67
2021/03/26 10:36:02;;;;;;;8.82;4.93;;;;;;;;;;5029757;28;20177;-67
2021/03/26 10:38:34;;;;;;;7.88;4.55;;;;;;;;;;5033264;28;20174;-67
2021/03/26 10:41:07;;;;;;;11.77;5.20;;;;;;;;;;5026970;28;20201;-67
2021/03/26 10:43:40;;;;;;;11.45;5.20;;;;;;;;;;5029163;28;20247;-67
2021/03/26 10:46:18;;;;;;;8.77;5.93;;;;;;;;;;5029167;28;20734;-67
2021/03/26 10:49:01;;;;;;;9.23;5.05;;;;;;;;;;5032593;28;20196;-68
2021/03/26 10:51:45;;;;;;;6.65;4.05;;;;;;;;;;5052374;28;20548;-67
2021/03/26 10:54:17;;;;;;;8.80;4.13;;;;;;;;;;5037559;28;20304;-68
2021/03/26 10:56:46;;;;;;;6.53;3.88;;;;;;;;;;5032735;28;20181;-66
2021/03/26 10:59:24;;;;;;;9.05;4.30;;;;;;;;;;5030369;28;20471;-67
2021/03/26 11:01:50;;;;;;;8.23;4.03;;;;;;;;;;5026085;28;20181;-67
2021/03/26 11:04:22;;;;;;;9.68;5.05;;;;;;;;;;5029556;28;20644;-66
2021/03/26 11:06:50;;;;;;;8.18;5.53;;;;;;;;;;5031546;28;20194;-68
2021/03/26 11:09:34;;;;;;;6.93;4.72;;;;;;;;;;5027091;28;20193;-67
2021/03/26 11:12:06;;;;;;;7.88;4.43;;;;;;;;;;5026514;28;20225;-67
2021/03/26 11:14:50;;;;;;;8.60;4.53;;;;;;;;;;5030685;28;20210;-67
2021/03/26 11:17:15;;;;;;;6.57;4.05;;;;;;;;;;5029571;28;20827;-67
2021/03/26 11:19:59;;;;;;;7.35;4.65;;;;;;;;;;5025298;28;20246;-67
2021/03/26 11:22:27;;;;;;;9.25;4.88;;;;;;;;;;5025939;28;20439;-67
2021/03/26 11:25:06;;;;;;;8.85;4.90;;;;;;;;;;5030574;28;20189;-66
2021/03/26 11:27:46;;;;;;;8.07;4.43;;;;;;;;;;5022669;28;20207;-67
2021/03/26 11:30:20;;;;;;;6.40;4.63;;;;;;;;;;5023934;28;20248;-67
2021/03/26 11:32:47;;;;;;;8.98;5.20;;;;;;;;;;5028056;28;20667;-66
2021/03/26 11:35:18;;;;;;;5.85;4.28;;;;;;;;;;5024419;28;20193;-66
2021/03/26 11:37:49;;;;;;;17.30;5.55;;;;;;;;;;5029061;28;20186;-66
2021/03/26 11:40:17;;;;;;;8.65;4.20;;;;;;;;;;5031908;28;20288;-67
2021/03/26 11:42:47;;;;;;;7.40;3.35;;;;;;;;;;5026587;28;20183;-67
2021/03/26 11:45:13;;;;;;;5.05;3.33;;;;;;;;;;5035530;28;20170;-67
2021/03/26 11:47:39;;;;;;;8.20;3.17;;;;;;;;;;5029017;28;20178;-68
2021/03/26 11:50:23;;;;;;;7.70;3.80;;;;;;;;;;5024276;28;20604;-67
2021/03/26 11:53:03;;;;;;;6.45;3.10;;;;;;;;;;5024826;28;20398;-66
2021/03/26 11:55:31;;;;;;;8.15;3.40;;;;;;;;;;5028866;28;20852;-66
2021/03/26 11:58:09;;;;;;;8.25;3.28;;;;;;;;;;5024993;28;20186;-67
2021/03/26 12:00:36;;;;;;;7.45;3.65;;;;;;;;;;5025614;28;20308;-66
2021/03/26 12:03:06;;;;;;;11.60;4.28;;;;;;;;;;5025024;28;20558;-67
2021/03/26 12:05:34;;;;;;;5.25;3.25;;;;;;;;;;5027496;28;20656;-67
2021/03/26 12:08:00;;;;;;;6.30;3.60;;;;;;;;;;5032767;28;20192;-67
2021/03/26 12:10:28;;;;;;;7.20;3.30;;;;;;;;;;5028569;28;20202;-66
2021/03/26 12:13:02;;;;;;;7.40;3.70;;;;;;;;;;5027173;28;20520;-67
2021/03/26 12:15:30;;;;;;;5.13;3.00;;;;;;;;;;5027090;28;20247;-67
2021/03/26 12:18:01;;;;;;;7.30;2.67;;;;;;;;;;5023318;28;20176;-66
2021/03/26 12:20:28;;;;;;;7.68;3.03;;;;;;;;;;5029736;28;20201;-67
2021/03/26 12:22:54;;;;;;;5.45;3.00;;;;;;;;;;5025090;28;20182;-67
2021/03/26 12:25:23;;;;;;;5.85;3.00;;;;;;;;;;5030388;28;20182;-66
2021/03/26 12:27:50;;;;;;;10.93;2.90;;;;;;;;;;5025065;28;20178;-67
2021/03/26 12:30:20;;;;;;;5.20;2.75;;;;;;;;;;5024254;28;20209;-67
2021/03/26 12:32:57;;;;;;;5.18;2.80;;;;;;;;;;5024392;28;20186;-67
2021/03/26 12:35:25;;;;;;;5.95;2.92;;;;;;;;;;5027377;28;20608;-67
2021/03/26 12:37:50;;;;;;;6.68;2.78;;;;;;;;;;5025103;28;20186;-66
2021/03/26 12:40:43;;;;;;;12.15;4.85;;;;;;;;;;5029704;28;20228;-67
2021/03/26 12:43:11;;;;;;;5.75;3.00;;;;;;;;;;5025345;28;20905;-67
2021/03/26 12:45:42;;;;;;;6.45;3.15;;;;;;;;;;5025767;28;20588;-66
2021/03/26 12:48:19;;;;;;;6.70;3.35;;;;;;;;;;5027969;28;20193;-67
2021/03/26 12:50:48;;;;;;;6.28;2.60;;;;;;;;;;5024770;28;20734;-67
2021/03/26 12:53:31;;;;;;;7.03;2.70;;;;;;;;;;5027206;28;20231;-66
2021/03/26 12:56:15;;;;;;;7.32;2.47;;;;;;;;;;5029148;28;20178;-67
2021/03/26 12:58:53;;;;;;;5.97;3.22;;;;;;;;;;5023765;28;20182;-66
2021/03/26 13:01:28;;;;;;;6.70;3.10;;;;;;;;;;5025803;28;20267;-68
2021/03/26 13:03:59;;;;;;;9.38;3.30;;;;;;;;;;5029076;28;20199;-67
2021/03/26 13:06:33;;;;;;;9.98;5.45;;;;;;;;;;5023476;28;20224;-67
2021/03/26 13:09:07;;;;;;;4.43;2.95;;;;;;;;;;5026171;28;20656;-66
2021/03/26 13:11:36;;;;;;;7.38;3.50;;;;;;;;;;5023761;28;20271;-66
2021/03/26 13:14:22;;;;;;;5.00;3.08;;;;;;;;;;5025952;28;20221;-67
2021/03/26 13:16:49;;;;;;;7.10;3.15;;;;;;;;;;5025428;28;20187;-67
2021/03/26 13:19:20;;;;;;;4.15;3.15;;;;;;;;;;5023084;28;20640;-66
2021/03/26 13:22:07;;;;;;;3.92;3.42;;;;;;;;;;5025064;28;20179;-67
2021/03/26 13:24:35;;;;;;;5.43;3.85;;;;;;;;;;5025985;28;20210;-66
2021/03/26 13:27:12;;;;;;;6.32;4.18;;;;;;;;;;5021645;28;20198;-68
2021/03/26 13:29:38;;;;;;;6.88;3.33;;;;;;;;;;5022422;28;20682;-66
2021/03/26 13:32:07;;;;;;;7.72;3.33;;;;;;;;;;5028574;28;20510;-67
2021/03/26 13:34:35;;;;;;;5.93;3.10;;;;;;;;;;5028410;28;20202;-67
2021/03/26 13:37:22;;;;;;;6.68;3.60;;;;;;;;;;5025740;28;20181;-66
2021/03/26 13:39:47;;;;;;;5.82;3.38;;;;;;;;;;5022429;28;20198;-65
2021/03/26 13:42:25;;;;;;;8.07;3.30;;;;;;;;;;5024362;28;20649;-66
2021/03/26 13:45:00;;;;;;;6.07;3.25;;;;;;;;;;5022945;28;21165;-66
2021/03/26 13:47:29;;;;;;;4.10;2.90;;;;;;;;;;5024808;28;20179;-67
2021/03/26 13:49:56;;;;;;;5.00;2.53;;;;;;;;;;5026064;28;20197;-68
2021/03/26 13:52:24;;;;;;;8.70;2.95;;;;;;;;;;5024649;28;20186;-67
2021/03/26 13:54:57;;;;;;;5.18;2.80;;;;;;;;;;5028935;28;20297;-67
2021/03/26 13:57:25;;;;;;;3.75;2.50;;;;;;;;;;5027789;28;20265;-66
2021/03/26 13:59:52;;;;;;;5.50;3.08;;;;;;;;;;5034674;28;20620;-68
2021/03/26 14:02:20;;;;;;;4.25;3.08;;;;;;;;;;5036236;28;20221;-66
2021/03/26 14:05:05;;;;;;;7.13;3.80;;;;;;;;;;5033587;28;20181;-68
2021/03/26 14:07:33;;;;;;;5.95;4.22;;;;;;;;;;5033885;28;20190;-67
2021/03/26 14:10:02;;;;;;;4.82;3.13;;;;;;;;;;5029826;28;20197;-66
2021/03/26 14:12:30;;;;;;;6.00;4.47;;;;;;;;;;5026462;28;20190;-67
2021/03/26 14:15:01;;;;;;;4.55;3.20;;;;;;;;;;5025513;28;20209;-67
2021/03/26 14:17:31;;;;;;;3.15;2.85;;;;;;;;;;5025830;28;20178;-66
2021/03/26 14:20:07;;;;;;;5.65;2.90;;;;;;;;;;5026077;28;20694;-66
2021/03/26 14:22:39;;;;;;;5.72;2.85;;;;;;;;;;5029475;28;20265;-68
2021/03/26 14:25:07;;;;;;;5.65;3.08;;;;;;;;;;5028852;28;20188;-68
2021/03/26 14:27:38;;;;;;;5.07;3.00;;;;;;;;;;5028764;28;20243;-69
2021/03/26 14:30:10;;;;;;;8.05;3.10;;;;;;;;;;5028435;28;20726;-69
2021/03/26 14:32:35;;;;;;;4.13;2.95;;;;;;;;;;5027150;28;20202;-69
2021/03/26 14:35:03;;;;;;;3.50;2.47;;;;;;;;;;5032912;28;20228;-69
2021/03/26 14:37:31;;;;;;;3.20;2.25;;;;;;;;;;5034108;28;20717;-69
2021/03/26 14:40:03;;;;;;;6.38;2.58;;;;;;;;;;5034901;28;20890;-67
2021/03/26 14:42:31;;;;;;;3.60;2.00;;;;;;;;;;5030197;28;20263;-68
2021/03/26 14:44:58;;;;;;;4.20;2.30;;;;;;;;;;5043387;28;20674;-68
2021/03/26 14:47:25;;;;;;;4.47;2.67;;;;;;;;;;5026276;28;20225;-68
2021/03/26 14:49:55;;;;;;;4.65;2.10;;;;;;;;;;5034608;28;20216;-67
2021/03/26 14:52:21;;;;;;;3.78;1.83;;;;;;;;;;5030021;28;20337;-67
2021/03/26 14:55:09;;;;;;;4.75;2.53;;;;;;;;;;5028148;28;20270;-68
2021/03/26 14:57:41;;;;;;;5.22;1.60;;;;;;;;;;5032290;28;21209;-68
2021/03/26 15:00:17;;;;;;;3.40;1.77;;;;;;;;;;5028002;28;20190;-69